createdAt,value
2018-06-11T00:00:08.944Z,0.00
2018-06-11T00:01:08.884Z,0.00
2018-06-11T00:02:08.807Z,0.00
2018-06-11T00:03:08.791Z,0.00
2018-06-11T00:04:08.728Z,0.00
2018-06-11T00:05:08.688Z,0.00
2018-06-11T00:06:08.650Z,0.00
2018-06-11T00:07:08.607Z,0.00
2018-06-11T00:08:08.570Z,0.00
2018-06-11T00:09:08.527Z,0.00
2018-06-11T00:10:08.486Z,0.00
2018-06-11T00:11:08.463Z,0.00
2018-06-11T00:12:08.433Z,0.00
2018-06-11T00:13:08.371Z,0.00
2018-06-11T00:14:08.351Z,0.00
2018-06-11T00:15:08.311Z,0.00
2018-06-11T00:16:08.264Z,0.00
2018-06-11T00:17:08.214Z,0.00
2018-06-11T00:18:08.180Z,0.00
2018-06-11T00:19:08.143Z,0.00
2018-06-11T00:20:08.083Z,0.00
2018-06-11T00:21:08.042Z,0.00
2018-06-11T00:22:07.999Z,0.00
2018-06-11T00:23:07.959Z,0.00
2018-06-11T00:24:07.923Z,0.00
2018-06-11T00:25:07.882Z,0.00
2018-06-11T00:26:07.837Z,0.00
2018-06-11T00:27:07.798Z,0.00
2018-06-11T00:28:07.756Z,0.00
2018-06-11T00:29:07.726Z,0.00
2018-06-11T00:30:07.678Z,0.00
2018-06-11T00:31:07.635Z,0.00
2018-06-11T00:32:07.596Z,0.00
2018-06-11T00:33:07.560Z,0.00
2018-06-11T00:34:07.518Z,0.00
2018-06-11T00:35:07.473Z,0.00
2018-06-11T00:36:07.433Z,0.00
2018-06-11T00:37:07.396Z,0.00
2018-06-11T00:38:07.356Z,0.00
2018-06-11T00:39:07.310Z,0.00
2018-06-11T00:40:07.308Z,0.00
2018-06-11T00:41:07.252Z,0.00
2018-06-11T00:42:07.207Z,0.00
2018-06-11T00:43:07.153Z,0.00
2018-06-11T00:44:07.108Z,0.00
2018-06-11T00:45:07.068Z,0.00
2018-06-11T00:46:07.031Z,0.00
2018-06-11T00:47:06.985Z,0.00
2018-06-11T00:48:06.946Z,0.00
2018-06-11T00:49:06.905Z,0.00
2018-06-11T00:50:06.864Z,0.00
2018-06-11T00:51:06.825Z,0.00
2018-06-11T00:52:06.784Z,0.00
2018-06-11T00:53:06.741Z,0.00
2018-06-11T00:54:06.701Z,0.00
2018-06-11T00:55:06.661Z,0.00
2018-06-11T00:56:06.620Z,0.00
2018-06-11T00:57:06.589Z,0.00
2018-06-11T00:58:06.538Z,0.00
2018-06-11T00:59:06.511Z,0.00
2018-06-11T01:00:06.458Z,0.00
2018-06-11T01:01:06.417Z,0.00
2018-06-11T01:02:06.378Z,0.00
2018-06-11T01:03:06.343Z,0.00
2018-06-11T01:04:06.298Z,0.00
2018-06-11T01:05:06.254Z,0.00
2018-06-11T01:06:06.213Z,0.00
2018-06-11T01:07:06.173Z,0.00
2018-06-11T01:08:06.174Z,0.00
2018-06-11T01:09:06.094Z,0.00
2018-06-11T01:10:06.051Z,0.00
2018-06-11T01:11:06.011Z,0.00
2018-06-11T01:12:05.971Z,0.00
2018-06-11T01:13:05.930Z,0.00
2018-06-11T01:14:05.888Z,0.00
2018-06-11T01:15:05.847Z,0.00
2018-06-11T01:16:05.828Z,0.00
2018-06-11T01:17:05.781Z,0.00
2018-06-11T01:18:05.735Z,0.00
2018-06-11T01:19:05.691Z,0.00
2018-06-11T01:20:05.646Z,0.00
2018-06-11T01:21:05.605Z,0.00
2018-06-11T01:22:05.563Z,0.00
2018-06-11T01:23:05.527Z,0.00
2018-06-11T01:24:05.482Z,0.00
2018-06-11T01:25:05.445Z,0.00
2018-06-11T01:26:05.400Z,0.00
2018-06-11T01:27:05.366Z,0.00
2018-06-11T01:28:05.320Z,0.00
2018-06-11T01:29:05.281Z,0.00
2018-06-11T01:30:05.306Z,0.00
2018-06-11T01:31:05.196Z,0.00
2018-06-11T01:32:05.167Z,0.00
2018-06-11T01:33:05.120Z,0.00
2018-06-11T01:34:05.076Z,0.00
2018-06-11T01:35:05.034Z,0.00
2018-06-11T01:36:04.994Z,0.00
2018-06-11T01:37:04.953Z,0.00
2018-06-11T01:38:04.914Z,0.00
2018-06-11T01:39:04.871Z,0.00
2018-06-11T01:40:04.829Z,0.00
2018-06-11T01:41:04.790Z,0.00
2018-06-11T01:42:04.748Z,0.00
2018-06-11T01:43:04.711Z,0.00
2018-06-11T01:44:04.667Z,0.00
2018-06-11T01:45:04.628Z,0.00
2018-06-11T01:46:04.590Z,0.00
2018-06-11T01:47:04.547Z,0.00
2018-06-11T01:48:04.504Z,0.00
2018-06-11T01:49:04.468Z,0.00
2018-06-11T01:50:04.422Z,0.00
2018-06-11T01:51:04.380Z,0.00
2018-06-11T01:52:04.355Z,0.00
2018-06-11T01:53:04.300Z,0.00
2018-06-11T01:54:04.269Z,0.00
2018-06-11T01:55:04.217Z,0.00
2018-06-11T01:56:04.178Z,0.00
2018-06-11T01:57:04.138Z,0.00
2018-06-11T01:58:04.098Z,0.00
2018-06-11T01:59:04.054Z,0.00
2018-06-11T02:00:04.021Z,0.00
2018-06-11T02:01:03.974Z,0.00
2018-06-11T02:02:03.931Z,0.00
2018-06-11T02:04:03.856Z,0.00
2018-06-11T02:05:03.814Z,0.00
2018-06-11T02:06:03.769Z,0.00
2018-06-11T02:07:03.728Z,0.00
2018-06-11T02:08:03.692Z,0.00
2018-06-11T02:09:03.644Z,0.00
2018-06-11T02:10:03.604Z,0.00
2018-06-11T02:11:03.563Z,0.00
2018-06-11T02:12:03.525Z,0.00
2018-06-11T02:13:03.487Z,0.00
2018-06-11T02:14:03.440Z,0.00
2018-06-11T02:15:03.400Z,0.00
2018-06-11T02:16:03.358Z,0.00
2018-06-11T02:17:03.319Z,0.00
2018-06-11T02:18:03.275Z,0.00
2018-06-11T02:19:03.235Z,0.00
2018-06-11T02:20:03.193Z,0.00
2018-06-11T02:21:03.154Z,0.00
2018-06-11T02:22:03.117Z,0.00
2018-06-11T02:23:03.072Z,0.00
2018-06-11T02:24:03.030Z,0.00
2018-06-11T02:25:02.989Z,0.00
2018-06-11T02:26:02.948Z,0.00
2018-06-11T02:27:02.912Z,0.00
2018-06-11T02:28:02.866Z,0.00
2018-06-11T02:29:02.829Z,0.00
2018-06-11T02:30:02.786Z,0.00
2018-06-11T02:31:02.746Z,0.00
2018-06-11T02:32:02.704Z,0.00
2018-06-11T02:33:02.661Z,0.00
2018-06-11T02:34:02.619Z,0.00
2018-06-11T02:35:02.577Z,0.00
2018-06-11T02:36:02.542Z,0.00
2018-06-11T02:37:02.498Z,0.00
2018-06-11T02:38:02.456Z,0.00
2018-06-11T02:39:02.413Z,0.00
2018-06-11T02:40:02.374Z,0.00
2018-06-11T02:41:02.335Z,0.00
2018-06-11T02:42:02.290Z,0.00
2018-06-11T02:43:02.249Z,4.00
2018-06-11T02:44:02.208Z,4.00
2018-06-11T02:45:02.169Z,0.00
2018-06-11T02:46:02.126Z,0.00
2018-06-11T02:47:02.084Z,4.00
2018-06-11T02:48:02.045Z,4.00
2018-06-11T02:49:02.027Z,4.00
2018-06-11T02:50:01.961Z,4.00
2018-06-11T02:51:01.920Z,4.00
2018-06-11T02:52:01.879Z,4.00
2018-06-11T02:53:01.843Z,4.00
2018-06-11T02:54:01.799Z,8.00
2018-06-11T02:55:01.756Z,8.00
2018-06-11T02:56:01.713Z,8.00
2018-06-11T02:57:01.675Z,8.00
2018-06-11T02:58:01.634Z,8.00
2018-06-11T02:59:01.591Z,12.00
2018-06-11T03:00:01.551Z,12.00
2018-06-11T03:01:01.509Z,16.00
2018-06-11T03:02:01.468Z,16.00
2018-06-11T03:03:01.430Z,20.00
2018-06-11T03:04:01.386Z,20.00
2018-06-11T03:05:01.352Z,24.00
2018-06-11T03:06:01.303Z,24.00
2018-06-11T03:07:01.263Z,28.00
2018-06-11T03:08:01.222Z,28.00
2018-06-11T03:09:01.180Z,32.00
2018-06-11T03:10:01.136Z,36.00
2018-06-11T03:11:01.101Z,40.00
2018-06-11T03:12:01.057Z,40.00
2018-06-11T03:13:01.016Z,48.00
2018-06-11T03:14:00.975Z,48.00
2018-06-11T03:15:00.933Z,52.00
2018-06-11T03:16:00.892Z,60.00
2018-06-11T03:17:00.850Z,60.00
2018-06-11T03:18:00.813Z,64.00
2018-06-11T03:19:00.767Z,72.00
2018-06-11T03:20:00.726Z,76.00
2018-06-11T03:21:00.685Z,80.00
2018-06-11T03:22:00.646Z,88.00
2018-06-11T03:23:00.603Z,92.00
2018-06-11T03:24:00.561Z,100.00
2018-06-11T03:25:00.523Z,104.00
2018-06-11T03:26:00.484Z,104.00
2018-06-11T03:27:00.439Z,108.00
2018-06-11T03:28:00.400Z,112.00
2018-06-11T03:29:00.358Z,120.00
2018-06-11T03:30:00.315Z,120.00
2018-06-11T03:31:00.277Z,124.00
2018-06-11T03:32:00.241Z,132.00
2018-06-11T03:33:00.199Z,136.00
2018-06-11T03:34:00.154Z,140.00
2018-06-11T03:35:00.110Z,144.00
2018-06-11T03:36:00.144Z,152.00
2018-06-11T03:37:00.097Z,160.00
2018-06-11T03:37:59.987Z,168.00
2018-06-11T03:38:59.948Z,172.00
2018-06-11T03:39:59.902Z,168.00
2018-06-11T03:40:59.863Z,180.00
2018-06-11T03:41:59.820Z,188.00
2018-06-11T03:42:59.781Z,188.00
2018-06-11T03:43:59.740Z,196.00
2018-06-11T03:44:59.697Z,200.00
2018-06-11T03:45:59.654Z,208.00
2018-06-11T03:46:59.620Z,216.00
2018-06-11T03:47:59.576Z,220.00
2018-06-11T03:48:59.531Z,224.00
2018-06-11T03:49:59.492Z,232.00
2018-06-11T03:50:59.453Z,232.00
2018-06-11T03:51:59.409Z,236.00
2018-06-11T03:52:59.367Z,248.00
2018-06-11T03:53:59.330Z,260.00
2018-06-11T03:54:59.286Z,260.00
2018-06-11T03:55:59.247Z,260.00
2018-06-11T03:56:59.203Z,268.00
2018-06-11T03:57:59.162Z,276.00
2018-06-11T03:58:59.124Z,276.00
2018-06-11T03:59:59.084Z,284.00
2018-06-11T04:00:59.041Z,280.00
2018-06-11T04:01:58.998Z,276.00
2018-06-11T04:02:58.960Z,280.00
2018-06-11T04:03:58.922Z,280.00
2018-06-11T04:04:58.874Z,280.00
2018-06-11T04:05:58.836Z,284.00
2018-06-11T04:06:58.791Z,288.00
2018-06-11T04:07:58.752Z,288.00
2018-06-11T04:08:58.710Z,288.00
2018-06-11T04:09:58.668Z,284.00
2018-06-11T04:10:58.678Z,284.00
2018-06-11T04:11:58.588Z,292.00
2018-06-11T04:12:58.557Z,300.00
2018-06-11T04:13:58.506Z,300.00
2018-06-11T04:14:58.468Z,296.00
2018-06-11T04:15:58.427Z,292.00
2018-06-11T04:16:58.386Z,304.00
2018-06-11T04:17:58.340Z,312.00
2018-06-11T04:18:58.300Z,312.00
2018-06-11T04:19:58.260Z,308.00
2018-06-11T04:20:58.220Z,308.00
2018-06-11T04:21:58.177Z,308.00
2018-06-11T04:22:58.136Z,316.00
2018-06-11T04:23:58.095Z,324.00
2018-06-11T04:24:58.054Z,328.00
2018-06-11T04:25:58.014Z,336.00
2018-06-11T04:26:57.973Z,328.00
2018-06-11T04:27:57.928Z,336.00
2018-06-11T04:28:57.890Z,360.00
2018-06-11T04:29:57.855Z,404.00
2018-06-11T04:30:57.810Z,456.00
2018-06-11T04:31:57.767Z,436.00
2018-06-11T04:32:57.732Z,436.00
2018-06-11T04:33:57.683Z,476.00
2018-06-11T04:34:57.643Z,488.00
2018-06-11T04:35:57.610Z,460.00
2018-06-11T04:36:57.563Z,480.00
2018-06-11T04:37:57.519Z,524.00
2018-06-11T04:38:57.477Z,564.00
2018-06-11T04:39:57.441Z,580.00
2018-06-11T04:40:57.395Z,640.00
2018-06-11T04:41:57.357Z,648.00
2018-06-11T04:42:57.320Z,584.00
2018-06-11T04:43:57.275Z,632.00
2018-06-11T04:44:57.232Z,732.00
2018-06-11T04:45:57.193Z,760.00
2018-06-11T04:46:57.149Z,780.00
2018-06-11T04:47:57.109Z,812.00
2018-06-11T04:48:57.069Z,872.00
2018-06-11T04:49:57.030Z,852.00
2018-06-11T04:50:56.984Z,888.00
2018-06-11T04:51:56.946Z,912.00
2018-06-11T04:52:56.905Z,932.00
2018-06-11T04:53:56.862Z,944.00
2018-06-11T04:54:56.825Z,988.00
2018-06-11T04:55:56.790Z,996.00
2018-06-11T04:56:56.741Z,1008.00
2018-06-11T04:57:56.706Z,1036.00
2018-06-11T04:58:56.659Z,1056.00
2018-06-11T04:59:56.621Z,1028.00
2018-06-11T05:00:56.579Z,1056.00
2018-06-11T05:01:56.538Z,1088.00
2018-06-11T05:02:56.498Z,1068.00
2018-06-11T05:03:56.458Z,1088.00
2018-06-11T05:04:56.414Z,1100.00
2018-06-11T05:05:56.373Z,1104.00
2018-06-11T05:06:56.334Z,1088.00
2018-06-11T05:07:56.299Z,1136.00
2018-06-11T05:08:56.253Z,1176.00
2018-06-11T05:09:56.211Z,1216.00
2018-06-11T05:10:56.170Z,1232.00
2018-06-11T05:11:56.131Z,1260.00
2018-06-11T05:12:56.095Z,1268.00
2018-06-11T05:13:56.048Z,1256.00
2018-06-11T05:14:56.008Z,1260.00
2018-06-11T05:15:55.967Z,1304.00
2018-06-11T05:16:55.928Z,1332.00
2018-06-11T05:17:55.887Z,1320.00
2018-06-11T05:18:55.843Z,1340.00
2018-06-11T05:19:55.803Z,1364.00
2018-06-11T05:20:55.764Z,1372.00
2018-06-11T05:21:55.725Z,1380.00
2018-06-11T05:22:55.696Z,1436.00
2018-06-11T05:23:55.642Z,1392.00
2018-06-11T05:24:55.600Z,1408.00
2018-06-11T05:25:55.564Z,1408.00
2018-06-11T05:26:55.520Z,1460.00
2018-06-11T05:27:55.479Z,1424.00
2018-06-11T05:28:55.441Z,1428.00
2018-06-11T05:29:55.401Z,1448.00
2018-06-11T05:30:55.359Z,1500.00
2018-06-11T05:31:55.327Z,1504.00
2018-06-11T05:32:55.278Z,1512.00
2018-06-11T05:33:55.234Z,1488.00
2018-06-11T05:34:55.273Z,1528.00
2018-06-11T05:35:55.156Z,1580.00
2018-06-11T05:36:55.118Z,1580.00
2018-06-11T05:37:55.070Z,1580.00
2018-06-11T05:38:55.029Z,1608.00
2018-06-11T05:39:54.991Z,1652.00
2018-06-11T05:40:54.950Z,1724.00
2018-06-11T05:41:54.952Z,1744.00
2018-06-11T05:42:54.869Z,1804.00
2018-06-11T05:43:54.832Z,1800.00
2018-06-11T05:44:54.790Z,1784.00
2018-06-11T05:45:54.748Z,1816.00
2018-06-11T05:46:54.706Z,1752.00
2018-06-11T05:47:54.698Z,1668.00
2018-06-11T05:48:54.628Z,1572.00
2018-06-11T05:49:54.585Z,1564.00
2018-06-11T05:50:54.558Z,1604.00
2018-06-11T05:51:54.505Z,1552.00
2018-06-11T05:52:54.469Z,1448.00
2018-06-11T05:53:54.422Z,1472.00
2018-06-11T05:54:54.382Z,1492.00
2018-06-11T05:55:54.341Z,1584.00
2018-06-11T05:56:54.303Z,1672.00
2018-06-11T05:57:54.260Z,1748.00
2018-06-11T05:58:54.221Z,1652.00
2018-06-11T05:59:54.183Z,1616.00
2018-06-11T06:00:54.142Z,1604.00
2018-06-11T06:01:54.099Z,1564.00
2018-06-11T06:02:54.063Z,1616.00
2018-06-11T06:03:54.020Z,1684.00
2018-06-11T06:04:53.979Z,1712.00
2018-06-11T06:05:53.943Z,1676.00
2018-06-11T06:06:53.896Z,1684.00
2018-06-11T06:07:53.855Z,1676.00
2018-06-11T06:08:53.817Z,1680.00
2018-06-11T06:09:53.775Z,1760.00
2018-06-11T06:10:53.733Z,1828.00
2018-06-11T06:11:53.696Z,1808.00
2018-06-11T06:12:53.654Z,1848.00
2018-06-11T06:13:53.612Z,1980.00
2018-06-11T06:14:53.572Z,2036.00
2018-06-11T06:15:53.530Z,2016.00
2018-06-11T06:16:53.491Z,2016.00
2018-06-11T06:17:53.450Z,1992.00
2018-06-11T06:18:53.412Z,2028.00
2018-06-11T06:19:53.372Z,1952.00
2018-06-11T06:20:53.331Z,1956.00
2018-06-11T06:21:53.290Z,1984.00
2018-06-11T06:22:53.246Z,2036.00
2018-06-11T06:23:53.208Z,1984.00
2018-06-11T06:24:53.168Z,2044.00
2018-06-11T06:25:53.129Z,2176.00
2018-06-11T06:26:53.088Z,2200.00
2018-06-11T06:27:53.044Z,2244.00
2018-06-11T06:28:53.007Z,2176.00
2018-06-11T06:29:52.974Z,2044.00
2018-06-11T06:30:52.924Z,2048.00
2018-06-11T06:31:52.888Z,2108.00
2018-06-11T06:32:52.845Z,2204.00
2018-06-11T06:33:52.806Z,2340.00
2018-06-11T06:34:52.881Z,2336.00
2018-06-11T06:35:52.729Z,2368.00
2018-06-11T06:36:52.682Z,2356.00
2018-06-11T06:37:52.649Z,2344.00
2018-06-11T06:38:52.615Z,2340.00
2018-06-11T06:39:52.565Z,2272.00
2018-06-11T06:40:52.520Z,2256.00
2018-06-11T06:41:52.479Z,2280.00
2018-06-11T06:42:52.440Z,2188.00
2018-06-11T06:43:52.400Z,2204.00
2018-06-11T06:44:52.362Z,2080.00
2018-06-11T06:45:52.317Z,2020.00
2018-06-11T06:46:52.280Z,2004.00
2018-06-11T06:47:52.237Z,1868.00
2018-06-11T06:48:52.198Z,1864.00
2018-06-11T06:49:52.158Z,1896.00
2018-06-11T06:50:52.124Z,2044.00
2018-06-11T06:51:52.077Z,2156.00
2018-06-11T06:52:52.041Z,2212.00
2018-06-11T06:53:51.999Z,2256.00
2018-06-11T06:54:51.956Z,2364.00
2018-06-11T06:55:51.920Z,2340.00
2018-06-11T06:56:51.875Z,2420.00
2018-06-11T06:57:51.838Z,2584.00
2018-06-11T06:58:51.795Z,2724.00
2018-06-11T06:59:51.754Z,2672.00
2018-06-11T07:00:51.716Z,2844.00
2018-06-11T07:01:51.677Z,2936.00
2018-06-11T07:02:51.639Z,2924.00
2018-06-11T07:03:51.593Z,2996.00
2018-06-11T07:04:51.553Z,2780.00
2018-06-11T07:05:51.515Z,2932.00
2018-06-11T07:06:51.506Z,3160.00
2018-06-11T07:07:51.439Z,3116.00
2018-06-11T07:08:51.394Z,2808.00
2018-06-11T07:09:51.357Z,2784.00
2018-06-11T07:10:51.318Z,2848.00
2018-06-11T07:11:51.278Z,2860.00
2018-06-11T07:12:51.253Z,2672.00
2018-06-11T07:13:51.203Z,2364.00
2018-06-11T07:14:51.157Z,2468.00
2018-06-11T07:15:51.115Z,2300.00
2018-06-11T07:16:51.076Z,2632.00
2018-06-11T07:17:51.033Z,2412.00
2018-06-11T07:18:50.996Z,2604.00
2018-06-11T07:19:50.954Z,2684.00
2018-06-11T07:20:50.917Z,2560.00
2018-06-11T07:21:50.874Z,2592.00
2018-06-11T07:22:50.834Z,2532.00
2018-06-11T07:23:50.798Z,2436.00
2018-06-11T07:24:50.754Z,2000.00
2018-06-11T07:25:50.714Z,2056.00
2018-06-11T07:26:50.677Z,2356.00
2018-06-11T07:27:50.637Z,2388.00
2018-06-11T07:28:50.598Z,2320.00
2018-06-11T07:29:50.556Z,2492.00
2018-06-11T07:30:50.516Z,2236.00
2018-06-11T07:31:50.476Z,2756.00
2018-06-11T07:32:50.437Z,2712.00
2018-06-11T07:33:50.402Z,2580.00
2018-06-11T07:34:50.360Z,2860.00
2018-06-11T07:35:50.320Z,3292.00
2018-06-11T07:36:50.278Z,3148.00
2018-06-11T07:37:50.241Z,3228.00
2018-06-11T07:38:50.198Z,3516.00
2018-06-11T07:39:50.158Z,3592.00
2018-06-11T07:40:50.118Z,3232.00
2018-06-11T07:41:50.084Z,2896.00
2018-06-11T07:42:50.040Z,2880.00
2018-06-11T07:43:49.999Z,3432.00
2018-06-11T07:44:49.959Z,3960.00
2018-06-11T07:45:49.923Z,3932.00
2018-06-11T07:46:49.888Z,3884.00
2018-06-11T07:47:49.849Z,3492.00
2018-06-11T07:48:49.804Z,3372.00
2018-06-11T07:49:49.767Z,3456.00
2018-06-11T07:50:49.774Z,3244.00
2018-06-11T07:51:49.709Z,2920.00
2018-06-11T07:52:49.648Z,2796.00
2018-06-11T07:53:49.606Z,3096.00
2018-06-11T07:54:49.568Z,3060.00
2018-06-11T07:55:49.528Z,3544.00
2018-06-11T07:56:49.489Z,4196.00
2018-06-11T07:57:49.450Z,4340.00
2018-06-11T07:58:49.412Z,4032.00
2018-06-11T07:59:49.374Z,3900.00
2018-06-11T08:00:49.333Z,3012.00
2018-06-11T08:01:49.295Z,2936.00
2018-06-11T08:02:49.257Z,2652.00
2018-06-11T08:03:49.220Z,3496.00
2018-06-11T08:04:49.181Z,3848.00
2018-06-11T08:05:49.140Z,3896.00
2018-06-11T08:06:49.099Z,2748.00
2018-06-11T08:07:49.061Z,2592.00
2018-06-11T08:08:49.022Z,3436.00
2018-06-11T08:09:48.982Z,3728.00
2018-06-11T08:10:48.944Z,3660.00
2018-06-11T08:11:48.905Z,3720.00
2018-06-11T08:12:48.870Z,2144.00
2018-06-11T08:13:48.828Z,2928.00
2018-06-11T08:14:48.792Z,3548.00
2018-06-11T08:15:48.750Z,2676.00
2018-06-11T08:16:48.713Z,3748.00
2018-06-11T08:17:48.674Z,2212.00
2018-06-11T08:18:48.634Z,3360.00
2018-06-11T08:19:48.597Z,3724.00
2018-06-11T08:20:48.580Z,3688.00
2018-06-11T08:21:48.519Z,3660.00
2018-06-11T08:22:48.481Z,3560.00
2018-06-11T08:23:48.443Z,3664.00
2018-06-11T08:24:48.406Z,3856.00
2018-06-11T08:25:48.367Z,3472.00
2018-06-11T08:26:48.328Z,3904.00
2018-06-11T08:28:48.252Z,3928.00
2018-06-11T08:29:48.215Z,3840.00
2018-06-11T08:30:48.174Z,3920.00
2018-06-11T08:31:48.136Z,4068.00
2018-06-11T08:32:48.097Z,4068.00
2018-06-11T08:33:48.080Z,4324.00
2018-06-11T08:34:48.021Z,4464.00
2018-06-11T08:35:47.984Z,4512.00
2018-06-11T08:36:47.944Z,4488.00
2018-06-11T08:37:47.905Z,4672.00
2018-06-11T08:38:47.872Z,4416.00
2018-06-11T08:39:47.831Z,4136.00
2018-06-11T08:40:47.793Z,5404.00
2018-06-11T08:41:47.754Z,5668.00
2018-06-11T08:42:47.715Z,5668.00
2018-06-11T08:43:47.679Z,5516.00
2018-06-11T08:44:47.640Z,5556.00
2018-06-11T08:45:47.601Z,5452.00
2018-06-11T08:46:47.567Z,5096.00
2018-06-11T08:47:47.529Z,5052.00
2018-06-11T08:48:47.489Z,4980.00
2018-06-11T08:49:47.452Z,4432.00
2018-06-11T08:50:47.412Z,4976.00
2018-06-11T08:51:47.374Z,5176.00
2018-06-11T08:52:47.336Z,5116.00
2018-06-11T08:53:47.301Z,4492.00
2018-06-11T08:54:47.261Z,5180.00
2018-06-11T08:55:47.226Z,5572.00
2018-06-11T08:56:47.187Z,5444.00
2018-06-11T08:57:47.153Z,5440.00
2018-06-11T08:58:47.115Z,5708.00
2018-06-11T08:59:47.082Z,5656.00
2018-06-11T09:00:47.038Z,5808.00
2018-06-11T09:01:47.002Z,5960.00
2018-06-11T09:02:46.961Z,5864.00
2018-06-11T09:03:46.922Z,6040.00
2018-06-11T09:04:46.886Z,6092.00
2018-06-11T09:05:46.847Z,5964.00
2018-06-11T09:06:46.810Z,5936.00
2018-06-11T09:07:46.774Z,5472.00
2018-06-11T09:08:46.736Z,5628.00
2018-06-11T09:09:46.703Z,4332.00
2018-06-11T09:10:46.664Z,4172.00
2018-06-11T09:11:46.622Z,3524.00
2018-06-11T09:12:46.587Z,3308.00
2018-06-11T09:13:46.547Z,3320.00
2018-06-11T09:14:46.513Z,3344.00
2018-06-11T09:15:46.476Z,3720.00
2018-06-11T09:16:46.436Z,4080.00
2018-06-11T09:17:46.401Z,4216.00
2018-06-11T09:18:46.364Z,3888.00
2018-06-11T09:19:46.325Z,3756.00
2018-06-11T09:20:46.288Z,3748.00
2018-06-11T09:21:46.249Z,4100.00
2018-06-11T09:22:46.214Z,4656.00
2018-06-11T09:23:46.176Z,4856.00
2018-06-11T09:24:46.139Z,4592.00
2018-06-11T09:25:46.101Z,5176.00
2018-06-11T09:26:46.066Z,4604.00
2018-06-11T09:27:46.029Z,4308.00
2018-06-11T09:28:45.990Z,4296.00
2018-06-11T09:29:45.955Z,4324.00
2018-06-11T09:30:45.922Z,4496.00
2018-06-11T09:31:48.084Z,5340.00
2018-06-11T09:32:45.843Z,5948.00
2018-06-11T09:33:45.807Z,5564.00
2018-06-11T09:34:45.784Z,5784.00
2018-06-11T09:35:45.737Z,5784.00
2018-06-11T09:36:45.696Z,5624.00
2018-06-11T09:37:45.659Z,6088.00
2018-06-11T09:38:45.624Z,6204.00
2018-06-11T09:39:45.582Z,6192.00
2018-06-11T09:40:45.547Z,5056.00
2018-06-11T09:41:45.510Z,4528.00
2018-06-11T09:42:45.471Z,4132.00
2018-06-11T09:43:45.520Z,4732.00
2018-06-11T09:44:45.401Z,5400.00
2018-06-11T09:45:45.360Z,5220.00
2018-06-11T09:46:45.327Z,5088.00
2018-06-11T09:47:45.289Z,4764.00
2018-06-11T09:48:45.254Z,4332.00
2018-06-11T09:49:45.214Z,4652.00
2018-06-11T09:50:45.181Z,5228.00
2018-06-11T09:51:45.141Z,4828.00
2018-06-11T09:52:45.106Z,5004.00
2018-06-11T09:53:45.067Z,4700.00
2018-06-11T09:54:45.034Z,4760.00
2018-06-11T09:55:45.002Z,4868.00
2018-06-11T09:56:44.965Z,4856.00
2018-06-11T09:57:44.931Z,4988.00
2018-06-11T09:58:44.899Z,4908.00
2018-06-11T09:59:44.851Z,4888.00
2018-06-11T10:00:44.816Z,4540.00
2018-06-11T10:01:44.780Z,4700.00
2018-06-11T10:02:44.741Z,4656.00
2018-06-11T10:03:44.712Z,3644.00
2018-06-11T10:04:44.674Z,4320.00
2018-06-11T10:05:44.634Z,4896.00
2018-06-11T10:06:44.597Z,4912.00
2018-06-11T10:07:44.568Z,5084.00
2018-06-11T10:08:44.523Z,4940.00
2018-06-11T10:09:44.488Z,5204.00
2018-06-11T10:10:44.452Z,5204.00
2018-06-11T10:11:44.416Z,5048.00
2018-06-11T10:12:44.381Z,4960.00
2018-06-11T10:13:44.343Z,5124.00
2018-06-11T10:14:44.314Z,5192.00
2018-06-11T10:15:44.271Z,5060.00
2018-06-11T10:16:44.238Z,5052.00
2018-06-11T10:17:44.205Z,5004.00
2018-06-11T10:18:44.164Z,4800.00
2018-06-11T10:19:44.133Z,4884.00
2018-06-11T10:20:44.094Z,4704.00
2018-06-11T10:22:44.023Z,4560.00
2018-06-11T10:23:43.984Z,4420.00
2018-06-11T10:24:43.948Z,4600.00
2018-06-11T10:25:43.912Z,4524.00
2018-06-11T10:26:43.882Z,4824.00
2018-06-11T10:27:43.847Z,4684.00
2018-06-11T10:28:43.803Z,4748.00
2018-06-11T10:29:43.772Z,4580.00
2018-06-11T10:30:43.734Z,4628.00
2018-06-11T10:31:43.696Z,4544.00
2018-06-11T10:32:48.468Z,4768.00
2018-06-11T10:33:43.625Z,4768.00
2018-06-11T10:34:43.589Z,5024.00
2018-06-11T10:35:43.555Z,4756.00
2018-06-11T10:36:43.521Z,5096.00
2018-06-11T10:37:43.482Z,5304.00
2018-06-11T10:38:43.448Z,5184.00
2018-06-11T10:39:43.414Z,5088.00
2018-06-11T10:40:43.377Z,4880.00
2018-06-11T10:41:43.341Z,5024.00
2018-06-11T10:42:43.315Z,5056.00
2018-06-11T10:43:43.277Z,5452.00
2018-06-11T10:44:43.237Z,5100.00
2018-06-11T10:45:43.201Z,5252.00
2018-06-11T10:46:43.166Z,5540.00
2018-06-11T10:47:43.129Z,5276.00
2018-06-11T10:48:43.092Z,5164.00
2018-06-11T10:49:43.059Z,5056.00
2018-06-11T10:50:43.022Z,5236.00
2018-06-11T10:51:42.989Z,5412.00
2018-06-11T10:52:42.950Z,4932.00
2018-06-11T10:53:42.916Z,5300.00
2018-06-11T10:54:42.881Z,5548.00
2018-06-11T10:55:42.848Z,5464.00
2018-06-11T10:56:42.812Z,5548.00
2018-06-11T10:57:42.780Z,5348.00
2018-06-11T10:58:42.747Z,5268.00
2018-06-11T10:59:42.710Z,5356.00
2018-06-11T11:00:42.670Z,5284.00
2018-06-11T11:01:42.633Z,4944.00
2018-06-11T11:02:42.597Z,5280.00
2018-06-11T11:03:42.565Z,5148.00
2018-06-11T11:04:42.530Z,5196.00
2018-06-11T11:05:42.493Z,5248.00
2018-06-11T11:06:42.461Z,5336.00
2018-06-11T11:07:42.480Z,5116.00
2018-06-11T11:08:42.394Z,5488.00
2018-06-11T11:09:42.353Z,5420.00
2018-06-11T11:10:42.322Z,5180.00
2018-06-11T11:11:42.284Z,5008.00
2018-06-11T11:12:42.250Z,5200.00
2018-06-11T11:13:42.213Z,5236.00
2018-06-11T11:14:42.182Z,5388.00
2018-06-11T11:15:42.142Z,5356.00
2018-06-11T11:16:42.113Z,5880.00
2018-06-11T11:17:42.072Z,5412.00
2018-06-11T11:18:42.052Z,5500.00
2018-06-11T11:19:42.004Z,5556.00
2018-06-11T11:20:41.970Z,5892.00
2018-06-11T11:21:41.933Z,5260.00
2018-06-11T11:22:41.902Z,5540.00
2018-06-11T11:23:41.866Z,5684.00
2018-06-11T11:24:41.829Z,5660.00
2018-06-11T11:25:41.793Z,5664.00
2018-06-11T11:26:41.760Z,5868.00
2018-06-11T11:27:41.726Z,5924.00
2018-06-11T11:28:41.693Z,6096.00
2018-06-11T11:29:41.674Z,6116.00
2018-06-11T11:30:41.625Z,6240.00
2018-06-11T11:31:41.587Z,6228.00
2018-06-11T11:32:41.551Z,6284.00
2018-06-11T11:33:41.532Z,6148.00
2018-06-11T11:34:41.482Z,6108.00
2018-06-11T11:35:41.449Z,6112.00
2018-06-11T11:36:41.419Z,6096.00
2018-06-11T11:37:41.383Z,6364.00
2018-06-11T11:38:41.343Z,6776.00
2018-06-11T11:39:41.341Z,6796.00
2018-06-11T11:40:41.279Z,6748.00
2018-06-11T11:41:41.243Z,6976.00
2018-06-11T11:42:41.208Z,6348.00
2018-06-11T11:43:41.174Z,7224.00
2018-06-11T11:44:41.139Z,5540.00
2018-06-11T11:45:41.104Z,5304.00
2018-06-11T11:46:41.074Z,4768.00
2018-06-11T11:47:41.036Z,5020.00
2018-06-11T11:48:41.004Z,5440.00
2018-06-11T11:49:40.969Z,6504.00
2018-06-11T11:50:40.939Z,6084.00
2018-06-11T11:51:40.903Z,7096.00
2018-06-11T11:52:40.867Z,6792.00
2018-06-11T11:53:40.840Z,7020.00
2018-06-11T11:54:40.802Z,7052.00
2018-06-11T11:55:40.773Z,6680.00
2018-06-11T11:56:40.735Z,7248.00
2018-06-11T11:57:40.699Z,6516.00
2018-06-11T11:58:40.671Z,6920.00
2018-06-11T11:59:40.633Z,7324.00
2018-06-11T12:00:40.610Z,6952.00
2018-06-11T12:01:40.572Z,7196.00
2018-06-11T12:02:40.535Z,7060.00
2018-06-11T12:03:40.502Z,7012.00
2018-06-11T12:04:40.465Z,6964.00
2018-06-11T12:05:40.450Z,7116.00
2018-06-11T12:06:40.399Z,6988.00
2018-06-11T12:07:40.430Z,7408.00
2018-06-11T12:08:40.333Z,7332.00
2018-06-11T12:09:40.308Z,7600.00
2018-06-11T12:10:40.268Z,7704.00
2018-06-11T12:11:40.235Z,7624.00
2018-06-11T12:12:40.201Z,7908.00
2018-06-11T12:13:40.170Z,8308.00
2018-06-11T12:14:40.157Z,7476.00
2018-06-11T12:15:40.107Z,8180.00
2018-06-11T12:16:40.075Z,8204.00
2018-06-11T12:17:40.039Z,7708.00
2018-06-11T12:18:40.009Z,8256.00
2018-06-11T12:19:39.978Z,8252.00
2018-06-11T12:20:39.944Z,8404.00
2018-06-11T12:21:39.918Z,8028.00
2018-06-11T12:22:39.880Z,8136.00
2018-06-11T12:23:39.850Z,8212.00
2018-06-11T12:24:39.823Z,8072.00
2018-06-11T12:25:39.784Z,8128.00
2018-06-11T12:26:39.760Z,8176.00
2018-06-11T12:27:39.725Z,8216.00
2018-06-11T12:28:39.693Z,8292.00